Terminal Aerodrome Forecast
Issued by NWS Sterling, VA

Current Version | Previous Version | Text Only | Print | Product List | Glossary Off
Versions: 1 2 3 4 5 6 7 8 9 10 11 12 13 14 15 16 17 18 19 20 21 22

000
FTUS41 KLWX 160500 RRA
TAFDCA
TAF
KDCA 160541Z 1606/1706 33020G32KT P6SM BKN050
     FM160900 33016G25KT P6SM SCT090
     FM161700 01012KT P6SM SKC
     FM162200 04007KT P6SM SKC=

USA.gov is the U.S. government's official web portal to all federal, state and local government web resources and services.